sensor_id;sensor_type;location;lat;lon;timestamp;P1;durP1;ratioP1;P2;durP2;ratioP2
19006;SDS011;9636;47.382;8.480;2023-04-25T00:00:50;2.97;;;2.13;;
19006;SDS011;9636;47.382;8.480;2023-04-25T00:03:18;1.70;;;1.60;;
19006;SDS011;9636;47.382;8.480;2023-04-25T00:05:46;1.90;;;1.80;;
19006;SDS011;9636;47.382;8.480;2023-04-25T00:08:15;1.70;;;1.60;;
19006;SDS011;9636;47.382;8.480;2023-04-25T00:10:42;2.17;;;2.00;;
19006;SDS011;9636;47.382;8.480;2023-04-25T00:13:08;2.10;;;1.90;;
19006;SDS011;9636;47.382;8.480;2023-04-25T00:15:36;2.10;;;2.00;;
19006;SDS011;9636;47.382;8.480;2023-04-25T00:18:03;1.80;;;1.70;;
19006;SDS011;9636;47.382;8.480;2023-04-25T00:20:31;1.90;;;1.80;;
19006;SDS011;9636;47.382;8.480;2023-04-25T00:22:58;1.60;;;1.50;;
19006;SDS011;9636;47.382;8.480;2023-04-25T00:25:26;2.10;;;2.00;;
19006;SDS011;9636;47.382;8.480;2023-04-25T00:27:53;2.53;;;1.73;;
19006;SDS011;9636;47.382;8.480;2023-04-25T00:30:19;1.90;;;1.80;;
19006;SDS011;9636;47.382;8.480;2023-04-25T00:32:46;1.93;;;1.73;;
19006;SDS011;9636;47.382;8.480;2023-04-25T00:35:13;1.80;;;1.70;;
19006;SDS011;9636;47.382;8.480;2023-04-25T00:37:40;1.90;;;1.80;;
19006;SDS011;9636;47.382;8.480;2023-04-25T00:40:07;1.80;;;1.70;;
19006;SDS011;9636;47.382;8.480;2023-04-25T00:42:36;1.90;;;1.80;;
19006;SDS011;9636;47.382;8.480;2023-04-25T00:45:04;1.70;;;1.60;;
19006;SDS011;9636;47.382;8.480;2023-04-25T00:47:33;2.40;;;1.90;;
19006;SDS011;9636;47.382;8.480;2023-04-25T00:50:02;2.20;;;1.70;;
19006;SDS011;9636;47.382;8.480;2023-04-25T00:52:29;2.30;;;2.10;;
19006;SDS011;9636;47.382;8.480;2023-04-25T00:54:56;1.93;;;1.77;;
19006;SDS011;9636;47.382;8.480;2023-04-25T00:57:23;1.80;;;1.70;;
19006;SDS011;9636;47.382;8.480;2023-04-25T00:59:51;1.90;;;1.80;;
19006;SDS011;9636;47.382;8.480;2023-04-25T01:02:20;1.77;;;1.67;;
19006;SDS011;9636;47.382;8.480;2023-04-25T01:04:47;2.13;;;1.93;;
19006;SDS011;9636;47.382;8.480;2023-04-25T01:07:14;1.73;;;1.63;;
19006;SDS011;9636;47.382;8.480;2023-04-25T01:09:41;1.87;;;1.73;;
19006;SDS011;9636;47.382;8.480;2023-04-25T01:12:08;2.13;;;1.97;;
19006;SDS011;9636;47.382;8.480;2023-04-25T01:14:35;2.47;;;1.80;;
19006;SDS011;9636;47.382;8.480;2023-04-25T01:17:03;1.77;;;1.67;;
19006;SDS011;9636;47.382;8.480;2023-04-25T01:19:32;1.80;;;1.70;;
19006;SDS011;9636;47.382;8.480;2023-04-25T01:22:01;1.63;;;1.53;;
19006;SDS011;9636;47.382;8.480;2023-04-25T01:24:28;1.80;;;1.70;;
19006;SDS011;9636;47.382;8.480;2023-04-25T01:26:56;1.83;;;1.73;;
19006;SDS011;9636;47.382;8.480;2023-04-25T01:29:25;1.93;;;1.83;;
19006;SDS011;9636;47.382;8.480;2023-04-25T01:31:53;1.80;;;1.70;;
19006;SDS011;9636;47.382;8.480;2023-04-25T01:34:20;1.80;;;1.70;;
19006;SDS011;9636;47.382;8.480;2023-04-25T01:36:47;2.67;;;1.80;;
19006;SDS011;9636;47.382;8.480;2023-04-25T01:39:17;1.83;;;1.70;;
19006;SDS011;9636;47.382;8.480;2023-04-25T01:41:45;1.70;;;1.60;;
19006;SDS011;9636;47.382;8.480;2023-04-25T01:44:12;1.90;;;1.80;;
19006;SDS011;9636;47.382;8.480;2023-04-25T01:46:39;1.63;;;1.53;;
19006;SDS011;9636;47.382;8.480;2023-04-25T01:49:06;2.10;;;1.90;;
19006;SDS011;9636;47.382;8.480;2023-04-25T01:51:33;2.00;;;1.80;;
19006;SDS011;9636;47.382;8.480;2023-04-25T01:54:00;1.90;;;1.80;;
19006;SDS011;9636;47.382;8.480;2023-04-25T01:56:31;2.00;;;1.90;;
19006;SDS011;9636;47.382;8.480;2023-04-25T01:58:58;1.80;;;1.70;;
19006;SDS011;9636;47.382;8.480;2023-04-25T02:01:25;1.93;;;1.80;;
19006;SDS011;9636;47.382;8.480;2023-04-25T02:03:52;1.83;;;1.73;;
19006;SDS011;9636;47.382;8.480;2023-04-25T02:06:18;1.70;;;1.60;;
19006;SDS011;9636;47.382;8.480;2023-04-25T02:08:45;2.30;;;2.10;;
19006;SDS011;9636;47.382;8.480;2023-04-25T02:11:12;1.97;;;1.80;;
19006;SDS011;9636;47.382;8.480;2023-04-25T02:13:40;1.77;;;1.67;;
19006;SDS011;9636;47.382;8.480;2023-04-25T02:16:07;1.80;;;1.70;;
19006;SDS011;9636;47.382;8.480;2023-04-25T02:18:34;2.13;;;1.80;;
19006;SDS011;9636;47.382;8.480;2023-04-25T02:21:02;2.17;;;1.60;;
19006;SDS011;9636;47.382;8.480;2023-04-25T02:23:29;1.80;;;1.70;;
19006;SDS011;9636;47.382;8.480;2023-04-25T02:25:56;1.90;;;1.80;;
19006;SDS011;9636;47.382;8.480;2023-04-25T02:28:23;2.00;;;1.90;;
19006;SDS011;9636;47.382;8.480;2023-04-25T02:30:52;1.80;;;1.70;;
19006;SDS011;9636;47.382;8.480;2023-04-25T02:33:19;2.10;;;1.90;;
19006;SDS011;9636;47.382;8.480;2023-04-25T02:35:46;1.77;;;1.67;;
19006;SDS011;9636;47.382;8.480;2023-04-25T02:38:13;1.93;;;1.83;;
19006;SDS011;9636;47.382;8.480;2023-04-25T02:40:40;1.90;;;1.80;;
19006;SDS011;9636;47.382;8.480;2023-04-25T02:43:07;2.00;;;1.77;;
19006;SDS011;9636;47.382;8.480;2023-04-25T02:45:33;2.80;;;2.00;;
19006;SDS011;9636;47.382;8.480;2023-04-25T02:48:02;2.00;;;1.90;;
19006;SDS011;9636;47.382;8.480;2023-04-25T02:50:29;1.90;;;1.80;;
19006;SDS011;9636;47.382;8.480;2023-04-25T02:52:56;1.93;;;1.73;;
19006;SDS011;9636;47.382;8.480;2023-04-25T02:55:23;1.77;;;1.67;;
19006;SDS011;9636;47.382;8.480;2023-04-25T02:57:51;1.93;;;1.83;;
19006;SDS011;9636;47.382;8.480;2023-04-25T03:00:20;2.40;;;1.70;;
19006;SDS011;9636;47.382;8.480;2023-04-25T03:02:47;2.17;;;2.00;;
19006;SDS011;9636;47.382;8.480;2023-04-25T03:05:15;1.93;;;1.73;;
19006;SDS011;9636;47.382;8.480;2023-04-25T03:07:43;1.97;;;1.80;;
19006;SDS011;9636;47.382;8.480;2023-04-25T03:10:11;1.80;;;1.70;;
19006;SDS011;9636;47.382;8.480;2023-04-25T03:12:38;2.47;;;1.80;;
19006;SDS011;9636;47.382;8.480;2023-04-25T03:15:05;2.10;;;1.90;;
19006;SDS011;9636;47.382;8.480;2023-04-25T03:17:32;2.13;;;1.87;;
19006;SDS011;9636;47.382;8.480;2023-04-25T03:19:59;2.10;;;1.97;;
19006;SDS011;9636;47.382;8.480;2023-04-25T03:22:28;2.20;;;2.10;;
19006;SDS011;9636;47.382;8.480;2023-04-25T03:24:54;1.90;;;1.80;;
19006;SDS011;9636;47.382;8.480;2023-04-25T03:27:21;2.00;;;1.80;;
19006;SDS011;9636;47.382;8.480;2023-04-25T03:29:48;1.90;;;1.80;;
19006;SDS011;9636;47.382;8.480;2023-04-25T03:32:15;2.00;;;1.80;;
19006;SDS011;9636;47.382;8.480;2023-04-25T03:34:41;2.20;;;2.00;;
19006;SDS011;9636;47.382;8.480;2023-04-25T03:37:08;1.80;;;1.70;;
19006;SDS011;9636;47.382;8.480;2023-04-25T03:39:36;2.07;;;1.70;;
19006;SDS011;9636;47.382;8.480;2023-04-25T03:42:03;2.43;;;1.80;;
19006;SDS011;9636;47.382;8.480;2023-04-25T03:44:30;1.90;;;1.80;;
19006;SDS011;9636;47.382;8.480;2023-04-25T03:46:57;1.87;;;1.77;;
19006;SDS011;9636;47.382;8.480;2023-04-25T03:49:24;2.03;;;1.93;;
19006;SDS011;9636;47.382;8.480;2023-04-25T03:51:51;1.83;;;1.70;;
19006;SDS011;9636;47.382;8.480;2023-04-25T03:54:18;1.73;;;1.63;;
19006;SDS011;9636;47.382;8.480;2023-04-25T03:56:46;1.97;;;1.80;;
19006;SDS011;9636;47.382;8.480;2023-04-25T03:59:13;1.97;;;1.87;;
19006;SDS011;9636;47.382;8.480;2023-04-25T04:01:40;1.90;;;1.80;;
19006;SDS011;9636;47.382;8.480;2023-04-25T04:04:07;2.17;;;1.77;;
19006;SDS011;9636;47.382;8.480;2023-04-25T04:06:33;2.00;;;1.80;;
19006;SDS011;9636;47.382;8.480;2023-04-25T04:09:01;2.57;;;1.93;;
19006;SDS011;9636;47.382;8.480;2023-04-25T04:11:28;1.90;;;1.80;;
19006;SDS011;9636;47.382;8.480;2023-04-25T04:13:56;1.90;;;1.70;;
19006;SDS011;9636;47.382;8.480;2023-04-25T04:16:23;1.63;;;1.53;;
19006;SDS011;9636;47.382;8.480;2023-04-25T04:18:49;1.70;;;1.60;;
19006;SDS011;9636;47.382;8.480;2023-04-25T04:21:16;2.10;;;1.90;;
19006;SDS011;9636;47.382;8.480;2023-04-25T04:23:43;2.17;;;1.70;;
19006;SDS011;9636;47.382;8.480;2023-04-25T04:26:11;1.73;;;1.63;;
19006;SDS011;9636;47.382;8.480;2023-04-25T04:28:40;1.60;;;1.50;;
19006;SDS011;9636;47.382;8.480;2023-04-25T04:31:08;2.13;;;1.83;;
19006;SDS011;9636;47.382;8.480;2023-04-25T04:33:35;2.10;;;1.80;;
19006;SDS011;9636;47.382;8.480;2023-04-25T04:36:02;2.13;;;1.97;;
19006;SDS011;9636;47.382;8.480;2023-04-25T04:38:32;2.00;;;1.80;;
19006;SDS011;9636;47.382;8.480;2023-04-25T04:40:59;2.63;;;1.90;;
19006;SDS011;9636;47.382;8.480;2023-04-25T04:43:27;2.03;;;1.93;;
19006;SDS011;9636;47.382;8.480;2023-04-25T04:45:54;1.80;;;1.70;;
19006;SDS011;9636;47.382;8.480;2023-04-25T04:48:23;2.27;;;2.07;;
19006;SDS011;9636;47.382;8.480;2023-04-25T04:50:50;2.20;;;2.00;;
19006;SDS011;9636;47.382;8.480;2023-04-25T04:53:17;1.93;;;1.80;;
19006;SDS011;9636;47.382;8.480;2023-04-25T04:55:44;2.10;;;1.90;;
19006;SDS011;9636;47.382;8.480;2023-04-25T04:58:11;1.80;;;1.70;;
19006;SDS011;9636;47.382;8.480;2023-04-25T05:00:38;2.60;;;2.00;;
19006;SDS011;9636;47.382;8.480;2023-04-25T05:03:05;2.07;;;1.80;;
19006;SDS011;9636;47.382;8.480;2023-04-25T05:05:33;2.10;;;1.90;;
19006;SDS011;9636;47.382;8.480;2023-04-25T05:08:00;1.80;;;1.70;;
19006;SDS011;9636;47.382;8.480;2023-04-25T05:10:26;2.00;;;1.90;;
19006;SDS011;9636;47.382;8.480;2023-04-25T05:12:53;2.00;;;1.80;;
19006;SDS011;9636;47.382;8.480;2023-04-25T05:15:20;1.80;;;1.70;;
19006;SDS011;9636;47.382;8.480;2023-04-25T05:17:47;1.80;;;1.53;;
19006;SDS011;9636;47.382;8.480;2023-04-25T05:20:13;1.97;;;1.87;;
19006;SDS011;9636;47.382;8.480;2023-04-25T05:22:42;2.93;;;1.83;;
19006;SDS011;9636;47.382;8.480;2023-04-25T05:25:08;1.80;;;1.70;;
19006;SDS011;9636;47.382;8.480;2023-04-25T05:27:36;1.77;;;1.67;;
19006;SDS011;9636;47.382;8.480;2023-04-25T05:30:03;2.00;;;1.77;;
19006;SDS011;9636;47.382;8.480;2023-04-25T05:32:30;1.90;;;1.67;;
19006;SDS011;9636;47.382;8.480;2023-04-25T05:34:57;1.93;;;1.80;;
19006;SDS011;9636;47.382;8.480;2023-04-25T05:37:24;2.03;;;1.90;;
19006;SDS011;9636;47.382;8.480;2023-04-25T05:39:52;2.90;;;2.00;;
19006;SDS011;9636;47.382;8.480;2023-04-25T05:42:19;1.63;;;1.53;;
19006;SDS011;9636;47.382;8.480;2023-04-25T05:44:46;2.20;;;1.80;;
19006;SDS011;9636;47.382;8.480;2023-04-25T05:47:13;1.80;;;1.70;;
19006;SDS011;9636;47.382;8.480;2023-04-25T05:49:40;1.93;;;1.80;;
19006;SDS011;9636;47.382;8.480;2023-04-25T05:52:06;4.13;;;1.87;;
19006;SDS011;9636;47.382;8.480;2023-04-25T05:54:33;1.70;;;1.60;;
19006;SDS011;9636;47.382;8.480;2023-04-25T05:57:01;1.70;;;1.60;;
19006;SDS011;9636;47.382;8.480;2023-04-25T05:59:28;1.77;;;1.67;;
19006;SDS011;9636;47.382;8.480;2023-04-25T06:01:55;1.47;;;1.37;;
19006;SDS011;9636;47.382;8.480;2023-04-25T06:04:22;2.00;;;1.80;;
19006;SDS011;9636;47.382;8.480;2023-04-25T06:06:49;1.83;;;1.73;;
19006;SDS011;9636;47.382;8.480;2023-04-25T06:09:15;2.30;;;1.80;;
19006;SDS011;9636;47.382;8.480;2023-04-25T06:11:42;2.23;;;1.70;;
19006;SDS011;9636;47.382;8.480;2023-04-25T06:14:11;2.23;;;2.03;;
19006;SDS011;9636;47.382;8.480;2023-04-25T06:16:37;1.80;;;1.70;;
19006;SDS011;9636;47.382;8.480;2023-04-25T06:19:04;1.70;;;1.60;;
19006;SDS011;9636;47.382;8.480;2023-04-25T06:21:31;1.67;;;1.57;;
19006;SDS011;9636;47.382;8.480;2023-04-25T06:23:58;1.90;;;1.80;;
19006;SDS011;9636;47.382;8.480;2023-04-25T06:26:24;1.90;;;1.73;;
19006;SDS011;9636;47.382;8.480;2023-04-25T06:28:51;2.60;;;1.67;;
19006;SDS011;9636;47.382;8.480;2023-04-25T06:31:19;2.20;;;1.57;;
19006;SDS011;9636;47.382;8.480;2023-04-25T06:33:46;1.90;;;1.80;;
19006;SDS011;9636;47.382;8.480;2023-04-25T06:36:14;1.80;;;1.70;;
19006;SDS011;9636;47.382;8.480;2023-04-25T06:38:40;1.50;;;1.40;;
19006;SDS011;9636;47.382;8.480;2023-04-25T06:41:07;1.50;;;1.40;;
19006;SDS011;9636;47.382;8.480;2023-04-25T06:43:34;1.70;;;1.60;;
19006;SDS011;9636;47.382;8.480;2023-04-25T06:46:01;1.40;;;1.30;;
19006;SDS011;9636;47.382;8.480;2023-04-25T06:48:29;2.73;;;1.80;;
19006;SDS011;9636;47.382;8.480;2023-04-25T06:50:56;1.70;;;1.60;;
19006;SDS011;9636;47.382;8.480;2023-04-25T06:53:22;2.17;;;1.53;;
19006;SDS011;9636;47.382;8.480;2023-04-25T06:55:49;2.93;;;1.60;;
19006;SDS011;9636;47.382;8.480;2023-04-25T06:58:16;1.67;;;1.57;;
19006;SDS011;9636;47.382;8.480;2023-04-25T07:00:43;2.00;;;1.47;;
19006;SDS011;9636;47.382;8.480;2023-04-25T07:03:10;2.17;;;1.57;;
19006;SDS011;9636;47.382;8.480;2023-04-25T07:05:38;4.87;;;1.80;;
19006;SDS011;9636;47.382;8.480;2023-04-25T07:08:05;1.77;;;1.67;;
19006;SDS011;9636;47.382;8.480;2023-04-25T07:10:31;4.27;;;1.67;;
19006;SDS011;9636;47.382;8.480;2023-04-25T07:12:58;1.67;;;1.57;;
19006;SDS011;9636;47.382;8.480;2023-04-25T07:15:25;2.00;;;1.43;;
19006;SDS011;9636;47.382;8.480;2023-04-25T07:17:52;1.93;;;1.37;;
19006;SDS011;9636;47.382;8.480;2023-04-25T07:20:18;2.00;;;1.47;;
19006;SDS011;9636;47.382;8.480;2023-04-25T07:22:47;1.57;;;1.47;;
19006;SDS011;9636;47.382;8.480;2023-04-25T07:25:15;1.77;;;1.40;;
19006;SDS011;9636;47.382;8.480;2023-04-25T07:27:41;1.70;;;1.60;;
19006;SDS011;9636;47.382;8.480;2023-04-25T07:30:09;1.57;;;1.47;;
19006;SDS011;9636;47.382;8.480;2023-04-25T07:32:37;1.93;;;1.40;;
19006;SDS011;9636;47.382;8.480;2023-04-25T07:35:05;1.67;;;1.50;;
19006;SDS011;9636;47.382;8.480;2023-04-25T07:37:33;1.97;;;1.60;;
19006;SDS011;9636;47.382;8.480;2023-04-25T07:40:01;1.60;;;1.50;;
19006;SDS011;9636;47.382;8.480;2023-04-25T07:42:28;1.50;;;1.40;;
19006;SDS011;9636;47.382;8.480;2023-04-25T07:44:55;1.70;;;1.60;;
19006;SDS011;9636;47.382;8.480;2023-04-25T07:47:22;1.53;;;1.43;;
19006;SDS011;9636;47.382;8.480;2023-04-25T07:49:49;1.93;;;1.60;;
19006;SDS011;9636;47.382;8.480;2023-04-25T07:52:16;1.47;;;1.33;;
19006;SDS011;9636;47.382;8.480;2023-04-25T07:54:43;1.60;;;1.50;;
19006;SDS011;9636;47.382;8.480;2023-04-25T07:57:11;1.37;;;1.27;;
19006;SDS011;9636;47.382;8.480;2023-04-25T07:59:39;1.57;;;1.47;;
19006;SDS011;9636;47.382;8.480;2023-04-25T08:02:05;1.70;;;1.60;;
19006;SDS011;9636;47.382;8.480;2023-04-25T08:04:32;1.40;;;1.30;;
19006;SDS011;9636;47.382;8.480;2023-04-25T08:06:59;1.43;;;1.30;;
19006;SDS011;9636;47.382;8.480;2023-04-25T08:09:26;1.67;;;1.50;;
19006;SDS011;9636;47.382;8.480;2023-04-25T08:11:54;2.47;;;1.40;;
19006;SDS011;9636;47.382;8.480;2023-04-25T08:14:22;1.60;;;1.50;;
19006;SDS011;9636;47.382;8.480;2023-04-25T08:16:49;1.50;;;1.40;;
19006;SDS011;9636;47.382;8.480;2023-04-25T08:19:15;1.50;;;1.40;;
19006;SDS011;9636;47.382;8.480;2023-04-25T08:21:42;1.60;;;1.50;;
19006;SDS011;9636;47.382;8.480;2023-04-25T08:24:09;1.40;;;1.30;;
19006;SDS011;9636;47.382;8.480;2023-04-25T08:26:36;1.67;;;1.40;;
19006;SDS011;9636;47.382;8.480;2023-04-25T08:29:04;1.87;;;1.40;;
19006;SDS011;9636;47.382;8.480;2023-04-25T08:31:32;1.35;;;1.10;;
19006;SDS011;9636;47.382;8.480;2023-04-25T08:33:59;1.20;;;1.10;;
19006;SDS011;9636;47.382;8.480;2023-04-25T08:36:26;1.77;;;1.40;;
19006;SDS011;9636;47.382;8.480;2023-04-25T08:38:53;1.45;;;1.30;;
19006;SDS011;9636;47.382;8.480;2023-04-25T08:41:20;1.38;;;1.27;;
19006;SDS011;9636;47.382;8.480;2023-04-25T08:43:48;1.30;;;1.20;;
19006;SDS011;9636;47.382;8.480;2023-04-25T08:46:16;1.40;;;1.30;;
19006;SDS011;9636;47.382;8.480;2023-04-25T08:48:45;1.30;;;1.20;;
19006;SDS011;9636;47.382;8.480;2023-04-25T08:51:14;1.23;;;1.13;;
19006;SDS011;9636;47.382;8.480;2023-04-25T08:53:46;1.30;;;1.20;;
19006;SDS011;9636;47.382;8.480;2023-04-25T08:56:16;1.40;;;1.30;;
19006;SDS011;9636;47.382;8.480;2023-04-25T09:01:14;1.37;;;1.27;;
19006;SDS011;9636;47.382;8.480;2023-04-25T09:03:40;1.50;;;1.40;;
19006;SDS011;9636;47.382;8.480;2023-04-25T09:06:10;1.30;;;1.23;;
19006;SDS011;9636;47.382;8.480;2023-04-25T09:08:37;1.00;;;1.00;;
19006;SDS011;9636;47.382;8.480;2023-04-25T09:11:05;1.67;;;1.30;;
19006;SDS011;9636;47.382;8.480;2023-04-25T09:13:33;1.73;;;1.40;;
19006;SDS011;9636;47.382;8.480;2023-04-25T09:15:59;1.57;;;1.43;;
19006;SDS011;9636;47.382;8.480;2023-04-25T09:18:27;1.37;;;1.10;;
19006;SDS011;9636;47.382;8.480;2023-04-25T09:20:55;1.20;;;1.10;;
19006;SDS011;9636;47.382;8.480;2023-04-25T09:23:26;1.43;;;1.30;;
19006;SDS011;9636;47.382;8.480;2023-04-25T09:25:53;2.00;;;1.63;;
19006;SDS011;9636;47.382;8.480;2023-04-25T09:28:23;2.70;;;1.30;;
19006;SDS011;9636;47.382;8.480;2023-04-25T09:30:54;1.40;;;1.30;;
19006;SDS011;9636;47.382;8.480;2023-04-25T09:33:26;1.30;;;1.20;;
19006;SDS011;9636;47.382;8.480;2023-04-25T09:36:01;1.60;;;1.50;;
19006;SDS011;9636;47.382;8.480;2023-04-25T09:38:31;1.75;;;1.20;;
19006;SDS011;9636;47.382;8.480;2023-04-25T09:40:58;1.35;;;1.25;;
19006;SDS011;9636;47.382;8.480;2023-04-25T09:43:26;1.50;;;1.40;;
19006;SDS011;9636;47.382;8.480;2023-04-25T09:45:53;0.98;;;0.98;;
19006;SDS011;9636;47.382;8.480;2023-04-25T09:48:22;1.15;;;1.10;;
19006;SDS011;9636;47.382;8.480;2023-04-25T09:51:03;1.10;;;1.10;;
19006;SDS011;9636;47.382;8.480;2023-04-25T09:53:32;1.63;;;1.40;;
19006;SDS011;9636;47.382;8.480;2023-04-25T09:56:00;1.23;;;1.13;;
19006;SDS011;9636;47.382;8.480;2023-04-25T09:58:31;1.02;;;1.02;;
19006;SDS011;9636;47.382;8.480;2023-04-25T10:00:59;2.00;;;1.33;;
19006;SDS011;9636;47.382;8.480;2023-04-25T10:03:27;1.35;;;1.25;;
19006;SDS011;9636;47.382;8.480;2023-04-25T10:05:56;2.07;;;1.20;;
19006;SDS011;9636;47.382;8.480;2023-04-25T10:08:25;1.10;;;1.10;;
19006;SDS011;9636;47.382;8.480;2023-04-25T10:10:58;1.40;;;1.30;;
19006;SDS011;9636;47.382;8.480;2023-04-25T10:13:26;1.10;;;1.10;;
19006;SDS011;9636;47.382;8.480;2023-04-25T10:15:54;1.33;;;1.23;;
19006;SDS011;9636;47.382;8.480;2023-04-25T10:18:22;1.90;;;1.10;;
19006;SDS011;9636;47.382;8.480;2023-04-25T10:20:50;1.90;;;1.13;;
19006;SDS011;9636;47.382;8.480;2023-04-25T10:23:17;1.30;;;1.20;;
19006;SDS011;9636;47.382;8.480;2023-04-25T10:25:44;1.17;;;1.13;;
19006;SDS011;9636;47.382;8.480;2023-04-25T10:28:13;1.20;;;1.20;;
19006;SDS011;9636;47.382;8.480;2023-04-25T10:30:53;1.30;;;1.20;;
19006;SDS011;9636;47.382;8.480;2023-04-25T10:33:29;1.02;;;1.02;;
19006;SDS011;9636;47.382;8.480;2023-04-25T10:35:58;1.17;;;1.10;;
19006;SDS011;9636;47.382;8.480;2023-04-25T10:38:34;1.27;;;1.17;;
19006;SDS011;9636;47.382;8.480;2023-04-25T10:41:05;1.25;;;1.20;;
19006;SDS011;9636;47.382;8.480;2023-04-25T10:43:36;1.23;;;1.13;;
19006;SDS011;9636;47.382;8.480;2023-04-25T10:46:12;1.20;;;1.10;;
19006;SDS011;9636;47.382;8.480;2023-04-25T10:48:44;1.85;;;1.30;;
19006;SDS011;9636;47.382;8.480;2023-04-25T10:51:15;1.20;;;1.10;;
19006;SDS011;9636;47.382;8.480;2023-04-25T10:53:44;1.10;;;1.10;;
19006;SDS011;9636;47.382;8.480;2023-04-25T10:56:11;1.88;;;1.25;;
19006;SDS011;9636;47.382;8.480;2023-04-25T10:58:43;1.42;;;1.30;;
19006;SDS011;9636;47.382;8.480;2023-04-25T11:01:10;1.23;;;1.13;;
19006;SDS011;9636;47.382;8.480;2023-04-25T11:03:40;0.95;;;0.95;;
19006;SDS011;9636;47.382;8.480;2023-04-25T11:06:09;1.30;;;1.20;;
19006;SDS011;9636;47.382;8.480;2023-04-25T11:08:47;1.42;;;1.23;;
19006;SDS011;9636;47.382;8.480;2023-04-25T11:11:16;1.13;;;1.10;;
19006;SDS011;9636;47.382;8.480;2023-04-25T11:13:46;2.35;;;1.55;;
19006;SDS011;9636;47.382;8.480;2023-04-25T11:16:14;2.70;;;1.20;;
19006;SDS011;9636;47.382;8.480;2023-04-25T11:18:41;1.52;;;1.20;;
19006;SDS011;9636;47.382;8.480;2023-04-25T11:21:07;2.75;;;1.30;;
19006;SDS011;9636;47.382;8.480;2023-04-25T11:23:35;1.33;;;1.10;;
19006;SDS011;9636;47.382;8.480;2023-04-25T11:26:01;1.30;;;1.08;;
19006;SDS011;9636;47.382;8.480;2023-04-25T11:28:28;2.03;;;1.00;;
19006;SDS011;9636;47.382;8.480;2023-04-25T11:30:57;1.20;;;1.10;;
19006;SDS011;9636;47.382;8.480;2023-04-25T11:33:24;1.70;;;1.30;;
19006;SDS011;9636;47.382;8.480;2023-04-25T11:35:52;1.17;;;1.00;;
19006;SDS011;9636;47.382;8.480;2023-04-25T11:38:20;1.63;;;1.15;;
19006;SDS011;9636;47.382;8.480;2023-04-25T11:40:49;1.35;;;1.25;;
19006;SDS011;9636;47.382;8.480;2023-04-25T11:43:17;1.40;;;1.20;;
19006;SDS011;9636;47.382;8.480;2023-04-25T11:45:46;0.95;;;0.95;;
19006;SDS011;9636;47.382;8.480;2023-04-25T11:48:14;1.35;;;1.10;;
19006;SDS011;9636;47.382;8.480;2023-04-25T11:50:42;0.90;;;0.90;;
19006;SDS011;9636;47.382;8.480;2023-04-25T11:53:09;1.48;;;1.05;;
19006;SDS011;9636;47.382;8.480;2023-04-25T11:55:35;1.17;;;1.05;;
19006;SDS011;9636;47.382;8.480;2023-04-25T11:58:03;1.45;;;1.30;;
19006;SDS011;9636;47.382;8.480;2023-04-25T12:00:30;1.00;;;1.00;;
19006;SDS011;9636;47.382;8.480;2023-04-25T12:02:58;1.35;;;1.10;;
19006;SDS011;9636;47.382;8.480;2023-04-25T12:05:27;1.17;;;1.15;;
19006;SDS011;9636;47.382;8.480;2023-04-25T12:07:55;1.35;;;1.15;;
19006;SDS011;9636;47.382;8.480;2023-04-25T12:10:23;1.42;;;1.10;;
19006;SDS011;9636;47.382;8.480;2023-04-25T12:12:50;2.80;;;1.13;;
19006;SDS011;9636;47.382;8.480;2023-04-25T12:15:18;1.20;;;1.10;;
19006;SDS011;9636;47.382;8.480;2023-04-25T12:17:50;1.00;;;1.00;;
19006;SDS011;9636;47.382;8.480;2023-04-25T12:20:19;1.00;;;1.00;;
19006;SDS011;9636;47.382;8.480;2023-04-25T12:22:50;1.60;;;1.20;;
19006;SDS011;9636;47.382;8.480;2023-04-25T12:28:10;1.25;;;1.02;;
19006;SDS011;9636;47.382;8.480;2023-04-25T12:30:53;0.93;;;0.80;;
19006;SDS011;9636;47.382;8.480;2023-04-25T12:33:21;1.08;;;1.00;;
19006;SDS011;9636;47.382;8.480;2023-04-25T12:35:48;0.93;;;0.90;;
19006;SDS011;9636;47.382;8.480;2023-04-25T12:38:21;1.55;;;1.00;;
19006;SDS011;9636;47.382;8.480;2023-04-25T12:40:49;1.00;;;1.00;;
19006;SDS011;9636;47.382;8.480;2023-04-25T12:43:15;1.40;;;1.10;;
19006;SDS011;9636;47.382;8.480;2023-04-25T12:45:43;1.27;;;1.17;;
19006;SDS011;9636;47.382;8.480;2023-04-25T12:48:09;1.30;;;1.10;;
19006;SDS011;9636;47.382;8.480;2023-04-25T12:50:36;0.88;;;0.88;;
19006;SDS011;9636;47.382;8.480;2023-04-25T12:53:03;1.05;;;1.02;;
19006;SDS011;9636;47.382;8.480;2023-04-25T12:55:31;1.25;;;1.15;;
19006;SDS011;9636;47.382;8.480;2023-04-25T12:57:58;1.50;;;1.40;;
19006;SDS011;9636;47.382;8.480;2023-04-25T13:00:25;1.15;;;0.98;;
19006;SDS011;9636;47.382;8.480;2023-04-25T13:02:52;0.95;;;0.95;;
19006;SDS011;9636;47.382;8.480;2023-04-25T13:05:19;1.23;;;0.90;;
19006;SDS011;9636;47.382;8.480;2023-04-25T13:07:46;1.30;;;1.20;;
19006;SDS011;9636;47.382;8.480;2023-04-25T13:10:12;1.00;;;0.90;;
19006;SDS011;9636;47.382;8.480;2023-04-25T13:12:41;1.00;;;1.00;;
19006;SDS011;9636;47.382;8.480;2023-04-25T13:15:08;1.25;;;1.17;;
19006;SDS011;9636;47.382;8.480;2023-04-25T13:17:36;1.10;;;1.00;;
19006;SDS011;9636;47.382;8.480;2023-04-25T13:20:03;1.00;;;0.90;;
19006;SDS011;9636;47.382;8.480;2023-04-25T13:22:33;0.90;;;0.90;;
19006;SDS011;9636;47.382;8.480;2023-04-25T13:25:01;1.02;;;1.00;;
19006;SDS011;9636;47.382;8.480;2023-04-25T13:27:28;1.67;;;1.10;;
19006;SDS011;9636;47.382;8.480;2023-04-25T13:29:58;0.98;;;0.98;;
19006;SDS011;9636;47.382;8.480;2023-04-25T13:32:26;1.00;;;1.00;;
19006;SDS011;9636;47.382;8.480;2023-04-25T13:34:53;1.20;;;1.10;;
19006;SDS011;9636;47.382;8.480;2023-04-25T13:37:20;1.30;;;1.00;;
19006;SDS011;9636;47.382;8.480;2023-04-25T13:39:49;1.48;;;1.02;;
19006;SDS011;9636;47.382;8.480;2023-04-25T13:42:16;1.20;;;1.10;;
19006;SDS011;9636;47.382;8.480;2023-04-25T13:44:43;0.80;;;0.80;;
19006;SDS011;9636;47.382;8.480;2023-04-25T13:47:11;1.10;;;1.10;;
19006;SDS011;9636;47.382;8.480;2023-04-25T13:49:38;0.90;;;0.90;;
19006;SDS011;9636;47.382;8.480;2023-04-25T13:52:05;0.90;;;0.90;;
19006;SDS011;9636;47.382;8.480;2023-04-25T13:54:32;1.30;;;1.20;;
19006;SDS011;9636;47.382;8.480;2023-04-25T13:56:59;0.80;;;0.80;;
19006;SDS011;9636;47.382;8.480;2023-04-25T13:59:27;0.80;;;0.80;;
19006;SDS011;9636;47.382;8.480;2023-04-25T14:01:53;0.80;;;0.80;;
19006;SDS011;9636;47.382;8.480;2023-04-25T14:04:22;1.00;;;1.00;;
19006;SDS011;9636;47.382;8.480;2023-04-25T14:06:50;1.02;;;1.02;;
19006;SDS011;9636;47.382;8.480;2023-04-25T14:09:17;0.90;;;0.90;;
19006;SDS011;9636;47.382;8.480;2023-04-25T14:11:45;0.80;;;0.80;;
19006;SDS011;9636;47.382;8.480;2023-04-25T14:14:12;1.25;;;0.93;;
19006;SDS011;9636;47.382;8.480;2023-04-25T14:16:41;1.00;;;1.00;;
19006;SDS011;9636;47.382;8.480;2023-04-25T14:19:08;1.00;;;0.98;;
19006;SDS011;9636;47.382;8.480;2023-04-25T14:21:36;0.70;;;0.70;;
19006;SDS011;9636;47.382;8.480;2023-04-25T14:24:02;0.80;;;0.80;;
19006;SDS011;9636;47.382;8.480;2023-04-25T14:26:30;1.02;;;1.02;;
19006;SDS011;9636;47.382;8.480;2023-04-25T14:28:56;0.80;;;0.80;;
19006;SDS011;9636;47.382;8.480;2023-04-25T14:31:23;1.00;;;1.00;;
19006;SDS011;9636;47.382;8.480;2023-04-25T14:33:50;0.90;;;0.90;;
19006;SDS011;9636;47.382;8.480;2023-04-25T14:36:17;1.08;;;1.00;;
19006;SDS011;9636;47.382;8.480;2023-04-25T14:38:45;0.90;;;0.90;;
19006;SDS011;9636;47.382;8.480;2023-04-25T14:41:12;0.80;;;0.80;;
19006;SDS011;9636;47.382;8.480;2023-04-25T14:43:39;0.90;;;0.90;;
19006;SDS011;9636;47.382;8.480;2023-04-25T14:46:06;1.50;;;1.00;;
19006;SDS011;9636;47.382;8.480;2023-04-25T14:48:33;0.95;;;0.90;;
19006;SDS011;9636;47.382;8.480;2023-04-25T14:51:00;0.90;;;0.90;;
19006;SDS011;9636;47.382;8.480;2023-04-25T14:53:27;0.82;;;0.82;;
19006;SDS011;9636;47.382;8.480;2023-04-25T14:55:55;1.15;;;1.00;;
19006;SDS011;9636;47.382;8.480;2023-04-25T14:58:22;0.90;;;0.90;;
19006;SDS011;9636;47.382;8.480;2023-04-25T15:00:49;1.10;;;1.10;;
19006;SDS011;9636;47.382;8.480;2023-04-25T15:03:16;0.82;;;0.82;;
19006;SDS011;9636;47.382;8.480;2023-04-25T15:05:43;0.80;;;0.80;;
19006;SDS011;9636;47.382;8.480;2023-04-25T15:08:10;0.90;;;0.90;;